Time;durP1;ratioP1;P1;durP2;ratioP2;P2;SDS_P1;SDS_P2;PMS_P1;PMS_P2;Temp;Humidity;BMP_temperature;BMP_pressure;BME280_temperature;BME280_humidity;BME280_pressure;Samples;Min_cycle;Max_cycle;Signal;HPM_P1;HPM_P2
2023/10/11 14:44:42;;;;;;;2.20;1.10;;;;;;;18.44;28.04;101706.71;105702;1263;61149;-86
2023/10/11 14:47:13;;;;;;;5.40;1.20;;;;;;;18.33;28.08;101705.07;105689;1263;73082;-86
2023/10/11 14:49:45;;;;;;;2.20;1.30;;;;;;;18.24;28.26;101700.02;106040;1260;70328;-86
2023/10/11 14:52:13;;;;;;;3.10;1.20;;;;;;;18.13;28.47;101702.67;105703;1264;71386;-86
2023/10/11 14:54:42;;;;;;;2.20;1.30;;;;;;;18.11;28.42;101699.45;105680;1260;62321;-86
2023/10/11 14:57:11;;;;;;;2.80;1.30;;;;;;;17.99;28.40;101695.58;105711;1261;62228;-85
2023/10/11 14:59:38;;;;;;;3.50;1.30;;;;;;;17.86;28.61;101695.15;105678;1261;74071;-85
2023/10/11 15:02:06;;;;;;;3.80;1.20;;;;;;;17.73;28.80;101692.34;106305;1260;67251;-86
2023/10/11 15:04:35;;;;;;;3.60;1.30;;;;;;;17.62;28.98;101688.23;105708;1266;74930;-86
2023/10/11 15:07:06;;;;;;;4.70;1.40;;;;;;;17.48;29.14;101680.89;105926;1260;62520;-86
2023/10/11 15:09:34;;;;;;;4.40;1.30;;;;;;;17.34;29.20;101677.32;105737;1263;61505;-86
2023/10/11 15:12:03;;;;;;;3.40;1.50;;;;;;;17.21;29.40;101678.85;105851;1261;75425;-86
2023/10/11 15:14:30;;;;;;;2.90;1.50;;;;;;;17.09;29.60;101679.10;105721;1267;71093;-86
2023/10/11 15:16:59;;;;;;;4.10;1.50;;;;;;;16.95;29.75;101681.89;106620;1260;71013;-86
2023/10/11 15:19:27;;;;;;;5.60;1.30;;;;;;;16.81;29.95;101683.63;105753;1264;62133;-86
2023/10/11 15:21:55;;;;;;;5.50;1.60;;;;;;;16.72;30.08;101687.13;105771;1260;59805;-86
2023/10/11 15:24:23;;;;;;;1.60;1.00;;;;;;;16.63;30.20;101696.36;105763;1261;72965;-86
2023/10/11 15:26:51;;;;;;;13.20;2.60;;;;;;;16.50;30.33;101696.92;105783;1265;68442;-86
2023/10/11 15:29:22;;;;;;;4.70;1.50;;;;;;;16.40;30.53;101699.11;106670;1263;73143;-85
2023/10/11 15:31:50;;;;;;;4.10;1.40;;;;;;;16.29;30.78;101704.27;105716;1260;60402;-85
2023/10/11 15:34:18;;;;;;;3.90;1.40;;;;;;;16.23;31.03;101704.48;105805;1264;60593;-84
2023/10/11 15:36:47;;;;;;;4.00;1.50;;;;;;;16.12;31.22;101708.52;105786;1260;73070;-81
2023/10/11 15:39:15;;;;;;;5.90;1.20;;;;;;;16.02;31.29;101707.86;105781;1262;69694;-81
2023/10/11 15:41:44;;;;;;;5.20;1.30;;;;;;;15.94;31.57;101705.79;107158;1260;74991;-82
2023/10/11 15:44:15;;;;;;;2.60;1.40;;;;;;;15.82;31.90;101702.36;105530;1262;60531;-81
2023/10/11 15:46:47;;;;;;;5.10;1.70;;;;;;;15.69;32.15;101702.48;105697;1261;61435;-82
2023/10/11 15:49:15;;;;;;;3.40;1.40;;;;;;;15.58;32.24;101704.34;105650;1261;75036;-87
2023/10/11 15:51:43;;;;;;;2.10;1.10;;;;;;;15.48;32.49;101701.80;105675;1267;68821;-87
2023/10/11 15:54:11;;;;;;;4.70;1.50;;;;;;;15.40;32.59;101705.02;105705;1263;72778;-87
2023/10/11 15:56:39;;;;;;;6.80;1.80;;;;;;;15.32;32.73;101703.56;106765;1261;59634;-86
2023/10/11 15:59:07;;;;;;;3.70;1.90;;;;;;;15.25;32.84;101702.75;105747;1260;59645;-81
2023/10/11 16:01:38;;;;;;;6.30;1.30;;;;;;;15.15;32.99;101698.94;105734;1265;75189;-81
2023/10/11 16:04:06;;;;;;;4.40;1.50;;;;;;;15.06;33.21;101698.40;105788;1261;70658;-81
2023/10/11 16:06:35;;;;;;;5.00;1.60;;;;;;;14.97;33.45;101694.96;105722;1261;72671;-81
2023/10/11 16:09:11;;;;;;;3.20;1.40;;;;;;;14.91;33.53;101695.73;107396;1260;58114;-87
2023/10/11 16:11:39;;;;;;;4.10;1.70;;;;;;;14.81;33.63;101697.14;105701;1265;59571;-82
2023/10/11 16:14:07;;;;;;;3.70;1.70;;;;;;;14.75;33.75;101691.38;105700;1260;75363;-81
2023/10/11 16:16:35;;;;;;;2.90;1.70;;;;;;;14.71;33.95;101688.73;105897;1261;67114;-83
2023/10/11 16:19:03;;;;;;;2.90;2.00;;;;;;;14.70;33.93;101688.67;105763;1265;74009;-81
2023/10/11 16:21:31;;;;;;;7.30;2.30;;;;;;;14.69;34.00;101689.73;105655;1265;59557;-82
2023/10/11 16:24:00;;;;;;;7.50;3.40;;;;;;;14.64;33.97;101690.17;106703;1260;60117;-85
2023/10/11 16:26:31;;;;;;;8.20;3.60;;;;;;;14.58;33.95;101693.52;106240;1265;74235;-86
2023/10/11 16:29:01;;;;;;;6.00;3.10;;;;;;;14.49;34.10;101694.98;105714;1260;68695;-81
2023/10/11 16:31:30;;;;;;;8.60;3.30;;;;;;;14.44;34.19;101689.54;105693;1265;74844;-85
2023/10/11 16:33:58;;;;;;;10.00;4.00;;;;;;;14.38;34.29;101682.39;105835;1265;60480;-86
2023/10/11 16:36:26;;;;;;;9.80;3.90;;;;;;;14.31;34.53;101680.35;106149;1261;62487;-87
2023/10/11 16:38:55;;;;;;;14.40;5.30;;;;;;;14.26;34.71;101676.88;105698;1265;76438;-87
2023/10/11 16:41:23;;;;;;;21.10;7.10;;;;;;;14.20;34.84;101676.56;105814;1260;71096;-85
2023/10/11 16:43:51;;;;;;;19.20;7.10;;;;;;;14.16;34.93;101682.00;105865;1260;72483;-88
2023/10/11 16:46:20;;;;;;;18.00;6.60;;;;;;;14.13;35.11;101683.54;106182;1259;61491;-84
2023/10/11 16:48:59;;;;;;;19.80;6.10;;;;;;;14.11;35.14;101679.63;106143;1260;61139;-83
2023/10/11 16:51:28;;;;;;;15.10;6.30;;;;;;;14.07;35.13;101671.77;105704;1260;75826;-83
2023/10/11 16:53:56;;;;;;;16.00;5.50;;;;;;;14.00;35.31;101669.66;105777;1260;70525;-83
2023/10/11 16:56:24;;;;;;;13.80;6.00;;;;;;;14.00;35.33;101670.55;106171;1260;74997;-83
2023/10/11 16:58:52;;;;;;;15.30;6.60;;;;;;;14.04;35.34;101662.86;105963;1262;61614;-83
2023/10/11 17:01:20;;;;;;;47.70;10.30;;;;;;;14.06;35.28;101662.73;106654;1261;62214;-83
2023/10/11 17:03:48;;;;;;;23.60;8.60;;;;;;;14.06;35.35;101667.10;105945;1259;75783;-83
2023/10/11 17:06:16;;;;;;;18.40;7.40;;;;;;;14.11;35.29;101668.06;105862;1265;69558;-84
2023/10/11 17:08:44;;;;;;;20.60;8.20;;;;;;;14.10;35.21;101668.19;105923;1259;74738;-83
2023/10/11 17:11:14;;;;;;;18.50;8.20;;;;;;;14.07;35.28;101666.20;105849;1260;61371;-83
2023/10/11 17:13:43;;;;;;;20.70;8.20;;;;;;;14.05;35.32;101670.33;106292;1261;61022;-83
2023/10/11 17:16:13;;;;;;;18.30;8.30;;;;;;;14.04;35.25;101674.39;105893;1260;75013;-83
2023/10/11 17:18:41;;;;;;;15.80;7.90;;;;;;;14.02;35.34;101678.02;106083;1260;70785;-83
2023/10/11 17:21:11;;;;;;;19.00;8.10;;;;;;;13.98;35.37;101676.64;105873;1260;74856;-83
2023/10/11 17:23:40;;;;;;;21.20;7.70;;;;;;;13.92;35.50;101681.58;105948;1260;61122;-83
2023/10/11 17:26:12;;;;;;;20.10;8.70;;;;;;;13.88;35.60;101679.70;106533;1265;61267;-83
2023/10/11 17:28:43;;;;;;;15.10;7.60;;;;;;;13.86;35.62;101682.11;105992;1260;76154;-83
2023/10/11 17:31:15;;;;;;;17.20;6.60;;;;;;;13.81;35.62;101684.14;105919;1265;68679;-84
2023/10/11 17:33:43;;;;;;;16.50;7.10;;;;;;;13.77;35.68;101686.21;105953;1260;74932;-84
2023/10/11 17:36:12;;;;;;;15.60;7.00;;;;;;;13.75;35.76;101687.64;105846;1259;61525;-84
2023/10/11 17:38:40;;;;;;;16.00;6.50;;;;;;;13.67;35.86;101688.48;106491;1261;60976;-83
2023/10/11 17:41:09;;;;;;;15.00;5.60;;;;;;;13.61;36.02;101686.05;105925;1260;76149;-83
2023/10/11 17:43:38;;;;;;;15.20;5.60;;;;;;;13.52;36.16;101690.20;105769;1261;71097;-83
2023/10/11 17:46:06;;;;;;;11.90;5.60;;;;;;;13.41;36.49;101689.34;105813;1263;75047;-83
2023/10/11 17:48:45;;;;;;;11.70;5.30;;;;;;;13.34;36.77;101692.04;106402;1261;61099;-83
2023/10/11 17:51:17;;;;;;;13.30;5.00;;;;;;;13.27;37.04;101687.98;105793;1260;62009;-83
2023/10/11 17:53:45;;;;;;;10.20;4.90;;;;;;;13.21;37.15;101682.52;105872;1263;76542;-83
2023/10/11 17:56:14;;;;;;;8.60;4.40;;;;;;;13.11;37.38;101678.51;105941;1265;70936;-83
2023/10/11 17:58:42;;;;;;;11.40;4.20;;;;;;;12.97;37.66;101676.77;105831;1266;75369;-83
2023/10/11 18:01:17;;;;;;;10.50;4.90;;;;;;;12.83;38.03;101671.60;105902;1261;60979;-83
2023/10/11 18:03:47;;;;;;;9.10;4.40;;;;;;;12.69;38.17;101668.48;106942;1260;61086;-83
2023/10/11 18:06:15;;;;;;;9.90;4.40;;;;;;;12.57;38.33;101662.58;106045;1260;74674;-84
2023/10/11 18:08:44;;;;;;;12.60;6.00;;;;;;;12.46;38.30;101665.10;106054;1260;71110;-84
2023/10/11 18:11:12;;;;;;;12.30;5.20;;;;;;;12.42;38.56;101662.80;105923;1260;72451;-85
2023/10/11 18:13:40;;;;;;;10.60;4.70;;;;;;;12.40;38.68;101662.64;106234;1259;61736;-84
2023/10/11 18:16:08;;;;;;;9.50;4.30;;;;;;;12.39;38.60;101660.59;106160;1266;61169;-84
2023/10/11 18:18:36;;;;;;;11.30;4.50;;;;;;;12.35;38.76;101658.14;105882;1261;73156;-84
2023/10/11 18:21:05;;;;;;;9.80;4.50;;;;;;;12.29;38.76;101656.66;105849;1261;70634;-84
2023/10/11 18:23:32;;;;;;;9.80;3.90;;;;;;;12.27;38.93;101654.95;106071;1259;73817;-84
2023/10/11 18:26:00;;;;;;;10.60;4.30;;;;;;;12.25;39.02;101654.55;106097;1260;61106;-84
2023/10/11 18:28:30;;;;;;;11.80;4.50;;;;;;;12.25;39.02;101652.27;106817;1260;61156;-85
2023/10/11 18:31:06;;;;;;;8.60;4.00;;;;;;;12.24;39.03;101644.80;105928;1260;76775;-85
2023/10/11 18:33:34;;;;;;;8.00;3.50;;;;;;;12.27;38.88;101640.39;106262;1262;69819;-84
2023/10/11 18:36:02;;;;;;;8.30;3.60;;;;;;;12.27;38.91;101640.44;105969;1261;73970;-84
2023/10/11 18:38:32;;;;;;;10.60;4.30;;;;;;;12.25;39.00;101637.89;106025;1264;60492;-84
2023/10/11 18:41:02;;;;;;;11.60;3.90;;;;;;;12.25;38.89;101638.33;106513;1260;62731;-85
2023/10/11 18:43:31;;;;;;;11.50;4.40;;;;;;;12.31;38.83;101635.96;106042;1259;74648;-84
2023/10/11 18:46:03;;;;;;;9.60;4.20;;;;;;;12.33;38.81;101632.75;106084;1260;71126;-83
2023/10/11 18:48:32;;;;;;;9.70;4.30;;;;;;;12.37;38.85;101628.34;106033;1261;74947;-83
2023/10/11 18:51:00;;;;;;;9.00;4.00;;;;;;;12.44;38.67;101622.52;105970;1260;61208;-85
2023/10/11 18:53:28;;;;;;;6.70;3.40;;;;;;;12.49;38.72;101621.67;106025;1261;60424;-83
2023/10/11 18:55:56;;;;;;;9.10;3.80;;;;;;;12.58;38.45;101621.52;106899;1260;75944;-84
2023/10/11 18:58:24;;;;;;;10.20;3.90;;;;;;;12.71;38.29;101622.54;105718;1262;69340;-83
2023/10/11 19:00:51;;;;;;;9.70;3.70;;;;;;;12.79;38.18;101617.59;105900;1260;74751;-83
2023/10/11 19:03:19;;;;;;;9.60;3.60;;;;;;;12.85;38.06;101616.25;105855;1260;60946;-83
2023/10/11 19:05:47;;;;;;;8.20;3.70;;;;;;;12.91;37.89;101613.16;105955;1259;60888;-84
2023/10/11 19:08:15;;;;;;;8.60;3.80;;;;;;;12.96;37.74;101611.63;106907;1260;74782;-83
2023/10/11 19:10:43;;;;;;;8.20;3.60;;;;;;;13.02;37.71;101610.14;106138;1261;70784;-83
2023/10/11 19:13:13;;;;;;;13.30;3.60;;;;;;;13.11;37.57;101609.30;106368;1262;74444;-83
2023/10/11 19:15:41;;;;;;;10.30;3.80;;;;;;;13.19;37.38;101609.45;106239;1262;58997;-83
2023/10/11 19:18:10;;;;;;;10.40;3.80;;;;;;;13.25;37.22;101603.45;106374;1260;61280;-84
2023/10/11 19:20:38;;;;;;;6.10;3.10;;;;;;;13.28;37.02;101602.38;106351;1260;75975;-83
2023/10/11 19:23:05;;;;;;;8.60;3.50;;;;;;;13.34;36.96;101602.39;106902;1262;70853;-83
2023/10/11 19:25:33;;;;;;;5.60;2.50;;;;;;;13.40;36.86;101604.06;106054;1260;72686;-83
2023/10/11 19:28:01;;;;;;;10.70;3.50;;;;;;;13.45;36.71;101605.44;106071;1265;60564;-84
2023/10/11 19:30:29;;;;;;;6.70;3.00;;;;;;;13.51;36.56;101603.16;106506;1260;61121;-84
2023/10/11 19:32:57;;;;;;;7.30;2.80;;;;;;;13.54;36.46;101604.70;106338;1262;73825;-84
2023/10/11 19:35:25;;;;;;;7.50;3.30;;;;;;;13.56;36.38;101602.83;107721;1261;71106;-85
2023/10/11 19:37:52;;;;;;;12.20;4.30;;;;;;;13.56;36.29;101600.58;106287;1265;80790;-84
2023/10/11 19:40:27;;;;;;;8.90;3.30;;;;;;;13.61;36.25;101602.40;105947;1262;61977;-85
2023/10/11 19:42:55;;;;;;;7.30;3.40;;;;;;;13.63;36.19;101596.70;106002;1265;61186;-84
2023/10/11 19:45:23;;;;;;;7.40;3.00;;;;;;;13.68;36.00;101592.46;106254;1263;75633;-84
2023/10/11 19:47:54;;;;;;;8.80;3.10;;;;;;;13.67;36.03;101592.74;107062;1262;66649;-85
2023/10/11 19:50:26;;;;;;;7.60;3.00;;;;;;;13.68;36.00;101598.40;105952;1259;71731;-84
2023/10/11 19:52:57;;;;;;;9.30;3.40;;;;;;;13.69;36.11;101595.05;105815;1262;60576;-84
2023/10/11 19:55:25;;;;;;;10.10;3.50;;;;;;;13.67;36.07;101593.89;105789;1266;60464;-85
2023/10/11 19:57:57;;;;;;;9.30;3.30;;;;;;;13.69;36.15;101595.60;105835;1263;74322;-85
2023/10/11 20:00:25;;;;;;;5.90;2.70;;;;;;;13.73;36.19;101595.39;106244;1261;68472;-83
2023/10/11 20:02:56;;;;;;;8.20;3.20;;;;;;;13.72;36.24;101592.31;105677;1261;71098;-83
2023/10/11 20:05:24;;;;;;;8.10;3.10;;;;;;;13.75;36.19;101584.02;105774;1260;60915;-84
2023/10/11 20:07:53;;;;;;;7.90;3.40;;;;;;;13.79;36.17;101576.98;105738;1262;62114;-84
2023/10/11 20:10:21;;;;;;;9.40;2.70;;;;;;;13.78;36.28;101575.29;105583;1259;72609;-84
2023/10/11 20:12:50;;;;;;;7.80;3.20;;;;;;;13.77;36.41;101569.18;106643;1265;68827;-84
2023/10/11 20:15:19;;;;;;;7.60;2.70;;;;;;;13.79;36.45;101563.30;105744;1260;72683;-84
2023/10/11 20:17:49;;;;;;;8.90;3.20;;;;;;;13.78;36.46;101552.00;105679;1261;60582;-84
2023/10/11 20:20:19;;;;;;;9.10;2.70;;;;;;;13.76;36.64;101548.65;106019;1265;60356;-84
2023/10/11 20:22:48;;;;;;;6.10;3.10;;;;;;;13.75;36.79;101551.34;105951;1262;74265;-84
2023/10/11 20:25:16;;;;;;;9.30;3.30;;;;;;;13.79;36.99;101550.88;106452;1266;68902;-84
2023/10/11 20:27:48;;;;;;;8.40;3.00;;;;;;;13.81;37.17;101546.11;105600;1262;73030;-83
2023/10/11 20:30:19;;;;;;;6.80;3.00;;;;;;;13.84;37.31;101548.42;105742;1267;59907;-83
2023/10/11 20:32:50;;;;;;;6.70;3.00;;;;;;;13.85;37.63;101547.60;105930;1262;60606;-84
2023/10/11 20:35:25;;;;;;;7.40;3.00;;;;;;;13.88;37.77;101547.38;105829;1267;73856;-83
2023/10/11 20:37:55;;;;;;;8.20;2.90;;;;;;;13.91;38.01;101548.27;105661;1261;68306;-83
2023/10/11 20:40:23;;;;;;;6.50;2.30;;;;;;;13.98;38.16;101545.08;106187;1263;72756;-83
2023/10/11 20:42:53;;;;;;;5.10;2.20;;;;;;;14.02;38.32;101545.08;106013;1264;60554;-83
2023/10/11 20:45:22;;;;;;;8.10;2.70;;;;;;;14.07;38.52;101540.00;105859;1259;60557;-83
2023/10/11 20:47:54;;;;;;;8.00;2.70;;;;;;;14.14;38.71;101540.11;105839;1264;73865;-84
2023/10/11 20:50:28;;;;;;;5.10;2.40;;;;;;;14.19;38.89;101537.63;105721;1265;68691;-84
2023/10/11 20:52:57;;;;;;;9.30;2.30;;;;;;;14.25;38.98;101540.31;106330;1262;73155;-84
2023/10/11 20:55:25;;;;;;;5.40;2.40;;;;;;;14.27;39.24;101535.69;105815;1264;60568;-84
2023/10/11 20:58:06;;;;;;;5.00;2.20;;;;;;;14.32;39.45;101532.54;105794;1260;60430;-83
2023/10/11 21:00:45;;;;;;;6.80;2.60;;;;;;;14.34;39.55;101530.62;105878;1262;73865;-84
2023/10/11 21:03:13;;;;;;;4.70;2.20;;;;;;;14.35;39.80;101532.38;105949;1264;66163;-84
2023/10/11 21:05:43;;;;;;;3.90;2.00;;;;;;;14.41;39.89;101532.25;106258;1259;72728;-84
2023/10/11 21:08:14;;;;;;;5.60;2.20;;;;;;;14.49;39.95;101533.94;105682;1261;60475;-81
2023/10/11 21:10:48;;;;;;;4.20;2.00;;;;;;;14.56;40.04;101529.48;105614;1262;60387;-84
2023/10/11 21:13:21;;;;;;;6.90;2.30;;;;;;;14.58;40.29;101528.60;105801;1261;72658;-85
2023/10/11 21:15:50;;;;;;;4.40;2.20;;;;;;;14.62;40.48;101522.65;106156;1259;67858;-84
2023/10/11 21:18:21;;;;;;;4.40;2.20;;;;;;;14.69;40.43;101524.33;105667;1265;72724;-84
2023/10/11 21:20:52;;;;;;;8.90;2.00;;;;;;;14.73;40.74;101523.38;105750;1260;60548;-85
2023/10/11 21:23:21;;;;;;;5.80;2.00;;;;;;;14.77;40.82;101526.61;105788;1260;60460;-84
2023/10/11 21:25:50;;;;;;;4.60;2.20;;;;;;;14.77;40.89;101532.98;105814;1260;72690;-83
2023/10/11 21:28:18;;;;;;;4.40;2.10;;;;;;;14.74;41.05;101532.67;106738;1260;68401;-83
2023/10/11 21:30:46;;;;;;;6.70;2.40;;;;;;;14.65;41.39;101519.94;105705;1260;71439;-83
2023/10/11 21:33:14;;;;;;;4.50;1.90;;;;;;;14.65;41.78;101521.20;105815;1261;60553;-81
2023/10/11 21:35:42;;;;;;;5.50;2.00;;;;;;;14.68;41.96;101522.41;106006;1261;59215;-81
2023/10/11 21:38:10;;;;;;;7.70;2.00;;;;;;;14.70;42.11;101519.87;105834;1262;73854;-81
2023/10/11 21:40:41;;;;;;;4.70;2.30;;;;;;;14.68;42.33;101515.36;106648;1261;68702;-81
2023/10/11 21:43:11;;;;;;;6.90;1.90;;;;;;;14.67;42.53;101512.84;105839;1259;72765;-81
2023/10/11 21:45:41;;;;;;;4.10;1.90;;;;;;;14.67;42.70;101509.97;105973;1260;60520;-81
2023/10/11 21:48:10;;;;;;;4.50;2.20;;;;;;;14.71;43.01;101505.55;105908;1260;60470;-81
2023/10/11 21:50:41;;;;;;;4.70;2.00;;;;;;;14.73;43.26;101504.73;105775;1262;72340;-81
2023/10/11 21:53:10;;;;;;;3.50;1.90;;;;;;;14.74;43.60;101504.55;106284;1265;68770;-81
2023/10/11 21:55:38;;;;;;;5.30;1.80;;;;;;;14.76;43.83;101499.48;105630;1262;73116;-81
2023/10/11 21:58:08;;;;;;;4.10;1.80;;;;;;;14.78;44.06;101496.89;105800;1262;60510;-81
2023/10/11 22:00:46;;;;;;;3.20;1.70;;;;;;;14.80;44.30;101495.39;105623;1261;60024;-81
2023/10/11 22:03:18;;;;;;;4.60;1.60;;;;;;;14.82;44.65;101491.96;106858;1261;72599;-81
2023/10/11 22:05:54;;;;;;;3.50;1.60;;;;;;;14.82;44.86;101490.10;105876;1261;67163;-81
2023/10/11 22:08:23;;;;;;;3.30;1.80;;;;;;;14.89;44.95;101487.32;105695;1262;72698;-82
2023/10/11 22:10:51;;;;;;;2.60;1.50;;;;;;;14.93;45.20;101488.29;105746;1264;60573;-81
2023/10/11 22:13:21;;;;;;;3.90;1.90;;;;;;;14.98;45.30;101483.58;105720;1264;60125;-81
2023/10/11 22:15:51;;;;;;;3.30;1.70;;;;;;;15.03;45.45;101487.35;105636;1265;73866;-82
2023/10/11 22:18:20;;;;;;;5.30;1.70;;;;;;;15.04;45.68;101486.08;106559;1262;68434;-81
2023/10/11 22:20:49;;;;;;;5.40;1.70;;;;;;;15.01;46.03;101486.70;105650;1262;71217;-82
2023/10/11 22:23:21;;;;;;;4.00;1.90;;;;;;;15.01;46.19;101486.81;105952;1262;60556;-81
2023/10/11 22:25:49;;;;;;;3.90;1.60;;;;;;;14.98;46.42;101486.88;105674;1265;60604;-81
2023/10/11 22:28:18;;;;;;;7.80;1.80;;;;;;;14.99;46.77;101478.40;105745;1260;74461;-81
2023/10/11 22:30:47;;;;;;;4.30;1.60;;;;;;;15.03;46.87;101475.23;105737;1262;68395;-82
2023/10/11 22:33:21;;;;;;;4.50;1.90;;;;;;;15.04;47.01;101466.80;105978;1262;72729;-81
2023/10/11 22:35:53;;;;;;;3.80;1.50;;;;;;;15.03;47.20;101467.81;105626;1262;60867;-82
2023/10/11 22:38:21;;;;;;;4.00;1.70;;;;;;;15.03;47.69;101459.61;105956;1262;60377;-82
2023/10/11 22:40:50;;;;;;;5.00;1.80;;;;;;;15.03;47.89;101456.14;105725;1262;72629;-82
2023/10/11 22:43:19;;;;;;;3.10;1.50;;;;;;;15.08;47.91;101454.17;106060;1261;68424;-82
2023/10/11 22:45:56;;;;;;;1.70;1.30;;;;;;;15.10;48.20;101448.05;105993;1261;71428;-82
2023/10/11 22:48:26;;;;;;;3.50;1.90;;;;;;;15.14;48.19;101445.13;105665;1264;60527;-82
2023/10/11 22:50:55;;;;;;;4.60;1.60;;;;;;;15.14;48.42;101446.71;105666;1262;60552;-82
2023/10/11 22:53:23;;;;;;;5.20;1.40;;;;;;;15.14;48.32;101449.40;105605;1262;73922;-82
2023/10/11 22:55:52;;;;;;;4.20;1.60;;;;;;;15.11;48.47;101450.41;105918;1260;68437;-82
2023/10/11 22:58:20;;;;;;;6.00;2.50;;;;;;;15.13;48.75;101440.77;105744;1265;71109;-82
2023/10/11 23:00:48;;;;;;;4.00;1.40;;;;;;;15.14;48.76;101440.61;105600;1266;60378;-82
2023/10/11 23:03:17;;;;;;;3.40;1.30;;;;;;;15.14;49.01;101440.61;105825;1262;60864;-82
2023/10/11 23:05:45;;;;;;;4.20;1.60;;;;;;;15.14;49.27;101435.85;105712;1262;72683;-82
2023/10/11 23:08:13;;;;;;;3.10;1.50;;;;;;;15.14;49.39;101437.30;106494;1262;67696;-82
2023/10/11 23:10:44;;;;;;;3.00;1.30;;;;;;;15.10;49.59;101433.13;105614;1262;72639;-82
2023/10/11 23:13:15;;;;;;;4.00;1.40;;;;;;;15.11;49.86;101433.13;105761;1261;60873;-82
2023/10/11 23:15:52;;;;;;;2.40;1.20;;;;;;;15.12;50.02;101434.61;105645;1261;60736;-82
2023/10/11 23:18:25;;;;;;;4.00;1.50;;;;;;;15.12;50.32;101432.02;105922;1262;72495;-82
2023/10/11 23:20:59;;;;;;;2.80;1.50;;;;;;;15.16;50.58;101428.98;106108;1262;67414;-82
2023/10/11 23:23:34;;;;;;;2.30;1.20;;;;;;;15.19;50.64;101425.20;105677;1262;72476;-82
2023/10/11 23:26:04;;;;;;;3.10;1.60;;;;;;;15.22;50.86;101422.77;105543;1262;60407;-81
2023/10/11 23:28:36;;;;;;;3.90;1.40;;;;;;;15.24;50.96;101416.46;105704;1262;60628;-82
2023/10/11 23:31:07;;;;;;;5.20;1.50;;;;;;;15.31;50.84;101414.05;106288;1262;71825;-82
2023/10/11 23:33:48;;;;;;;2.00;1.30;;;;;;;15.32;51.15;101417.67;105507;1262;263169;-82
2023/10/11 23:36:33;;;;;;;4.10;1.40;;;;;;;15.36;51.18;101412.45;105644;1262;72872;-82
2023/10/11 23:39:06;;;;;;;2.50;1.20;;;;;;;15.38;50.96;101401.96;105741;1265;59316;-82
2023/10/11 23:41:44;;;;;;;4.80;1.80;;;;;;;15.37;50.99;101397.02;105660;1264;61746;-81
2023/10/11 23:44:18;;;;;;;2.90;1.30;;;;;;;15.36;51.20;101394.27;105910;1262;72587;-82
2023/10/11 23:49:48;;;;;;;2.30;1.40;;;;;;;15.41;51.38;101392.52;105402;1262;71437;-81
2023/10/11 23:52:16;;;;;;;4.20;1.80;;;;;;;15.40;51.39;101389.27;105641;1261;60542;-82
2023/10/11 23:54:48;;;;;;;2.50;1.40;;;;;;;15.39;51.43;101383.07;106362;1262;60468;-81
2023/10/11 23:57:31;;;;;;;5.10;1.80;;;;;;;15.39;51.49;101379.11;105704;1260;73865;-82
